Time;durP1;ratioP1;P1;durP2;ratioP2;P2;SDS_P1;SDS_P2;PMS_P1;PMS_P2;Temp;Humidity;BMP_temperature;BMP_pressure;BME280_temperature;BME280_humidity;BME280_pressure;Samples;Min_cycle;Max_cycle;Signal;HPM_P1;HPM_P2
2021/06/15 00:01:18;;;;;;;2.67;2.47;;;24.80;54.90;;;;;;5016084;28;20030;-62
2021/06/15 00:03:43;;;;;;;3.03;2.15;;;24.90;55.00;;;;;;5016001;28;20044;-62
2021/06/15 00:06:09;;;;;;;2.85;2.25;;;24.80;54.90;;;;;;5016375;28;20065;-62
2021/06/15 00:08:35;;;;;;;5.20;2.38;;;24.80;54.90;;;;;;5016319;28;20037;-62
2021/06/15 00:11:00;;;;;;;2.90;2.60;;;24.80;54.90;;;;;;5014457;28;20046;-62
2021/06/15 00:13:26;;;;;;;2.70;2.20;;;24.80;55.00;;;;;;5015947;28;20104;-62
2021/06/15 00:15:52;;;;;;;2.58;2.38;;;24.80;55.00;;;;;;5015872;28;20076;-62
2021/06/15 00:18:19;;;;;;;2.25;1.90;;;24.80;55.00;;;;;;5015798;28;20037;-62
2021/06/15 00:20:46;;;;;;;2.50;2.30;;;24.70;54.90;;;;;;5015811;28;20029;-62
2021/06/15 00:23:12;;;;;;;3.55;1.80;;;24.70;54.90;;;;;;5015667;28;20022;-62
2021/06/15 00:25:38;;;;;;;3.10;2.10;;;24.70;54.90;;;;;;5015760;28;20026;-62
2021/06/15 00:28:05;;;;;;;3.20;2.42;;;24.80;55.00;;;;;;5014827;28;20022;-62
2021/06/15 00:30:31;;;;;;;2.05;1.85;;;24.70;54.90;;;;;;5015847;28;20128;-62
2021/06/15 00:32:57;;;;;;;2.53;2.17;;;24.80;55.00;;;;;;5014065;28;20052;-62
2021/06/15 00:35:23;;;;;;;3.90;1.88;;;24.70;55.00;;;;;;5015800;28;20022;-62
2021/06/15 00:37:50;;;;;;;2.28;2.08;;;24.70;55.00;;;;;;5015790;28;20072;-63
2021/06/15 00:40:16;;;;;;;2.50;2.30;;;24.80;55.10;;;;;;5015778;28;20026;-62
2021/06/15 00:42:42;;;;;;;3.20;2.05;;;24.70;55.10;;;;;;5015426;28;20036;-63
2021/06/15 00:45:10;;;;;;;2.55;1.75;;;24.70;55.10;;;;;;5015519;28;20109;-62
2021/06/15 00:47:37;;;;;;;3.30;2.30;;;24.70;55.00;;;;;;5015514;28;20369;-62
2021/06/15 00:50:04;;;;;;;3.95;2.13;;;28.20;57.40;;;;;;5015529;28;20524;-62
2021/06/15 00:52:30;;;;;;;3.75;2.00;;;24.70;55.10;;;;;;5015183;28;20057;-62
2021/06/15 00:54:59;;;;;;;2.53;2.20;;;24.70;55.10;;;;;;5015227;28;20057;-62
2021/06/15 00:57:28;;;;;;;2.42;1.90;;;24.70;55.10;;;;;;5015424;28;20030;-62
2021/06/15 00:59:57;;;;;;;2.30;1.60;;;24.70;55.10;;;;;;5015347;28;20351;-62
2021/06/15 01:02:24;;;;;;;2.28;1.67;;;24.70;55.10;;;;;;5014103;28;20030;-62
2021/06/15 01:04:49;;;;;;;2.22;1.98;;;24.60;55.10;;;;;;5014590;28;20053;-62
2021/06/15 01:07:21;;;;;;;2.08;1.88;;;24.70;55.30;;;;;;5015147;28;20032;-62
2021/06/15 01:10:17;;;;;;;1.92;1.77;;;24.60;55.20;;;;;;5014874;28;20034;-62
2021/06/15 01:12:57;;;;;;;2.75;1.90;;;24.60;55.10;;;;;;5014884;28;20025;-63
2021/06/15 01:15:55;;;;;;;2.85;1.65;;;24.60;55.20;;;;;;5015115;28;20026;-62
2021/06/15 01:18:24;;;;;;;2.15;1.67;;;24.60;55.30;;;;;;5011068;28;20033;-63
2021/06/15 01:20:58;;;;;;;2.15;1.63;;;24.60;55.30;;;;;;5014719;28;20041;-63
2021/06/15 01:23:48;;;;;;;2.17;1.90;;;24.60;55.30;;;;;;5014849;28;20022;-63
2021/06/15 01:26:45;;;;;;;2.17;1.90;;;24.60;55.30;;;;;;5014564;28;20030;-63
2021/06/15 01:29:19;;;;;;;1.85;1.67;;;24.60;55.30;;;;;;5014652;28;20030;-63
2021/06/15 01:31:53;;;;;;;1.85;1.75;;;24.70;55.40;;;;;;5014780;28;20373;-63
2021/06/15 01:34:23;;;;;;;2.42;1.70;;;24.60;55.40;;;;;;5014816;28;20025;-67
2021/06/15 01:37:09;;;;;;;3.10;1.80;;;24.60;55.40;;;;;;5014449;28;20037;-63
2021/06/15 01:40:04;;;;;;;2.40;1.88;;;24.70;55.50;;;;;;5014598;28;20456;-63
2021/06/15 01:42:43;;;;;;;1.73;1.50;;;24.50;55.40;;;;;;5010517;28;20026;-63
2021/06/15 01:45:12;;;;;;;2.22;1.67;;;24.50;55.40;;;;;;5014590;28;20436;-62
2021/06/15 01:47:41;;;;;;;1.98;1.75;;;24.50;55.40;;;;;;5013995;28;20473;-64
2021/06/15 01:50:09;;;;;;;2.78;1.95;;;24.50;55.50;;;;;;5014310;28;20034;-63
2021/06/15 01:52:38;;;;;;;1.95;1.40;;;24.50;55.50;;;;;;5014136;28;20076;-66
2021/06/15 01:55:06;;;;;;;2.30;1.58;;;24.60;55.60;;;;;;5014323;28;20350;-63
2021/06/15 01:57:36;;;;;;;3.20;1.80;;;24.50;55.50;;;;;;5013950;28;20473;-63
2021/06/15 02:00:09;;;;;;;2.15;1.50;;;24.60;55.60;;;;;;5013973;28;20033;-64
2021/06/15 02:02:37;;;;;;;2.25;1.58;;;24.50;55.60;;;;;;5013858;28;20070;-63
2021/06/15 02:05:07;;;;;;;2.38;1.63;;;24.50;55.50;;;;;;5013669;28;20054;-63
2021/06/15 02:07:35;;;;;;;;;;;24.50;55.60;;;;;;5014300;28;20476;-63
2021/06/15 02:10:09;;;;;;;1.58;1.42;;;24.50;55.60;;;;;;5013738;28;20544;-63
2021/06/15 02:12:40;;;;;;;3.53;2.08;;;24.50;55.50;;;;;;5013643;28;20416;-63
2021/06/15 02:15:08;;;;;;;3.05;2.00;;;24.50;55.60;;;;;;5013922;28;20029;-63
2021/06/15 02:17:38;;;;;;;1.50;1.33;;;24.50;55.60;;;;;;5013934;28;20022;-63
2021/06/15 02:20:06;;;;;;;2.00;1.52;;;24.50;55.70;;;;;;5013932;28;20029;-64
2021/06/15 02:22:32;;;;;;;3.42;1.80;;;24.50;55.70;;;;;;5013617;28;20018;-63
2021/06/15 02:25:00;;;;;;;3.75;1.77;;;24.50;55.70;;;;;;5013683;28;20392;-63
2021/06/15 02:27:27;;;;;;;2.80;1.77;;;24.50;55.70;;;;;;5013812;28;20161;-63
2021/06/15 02:29:56;;;;;;;1.95;1.42;;;24.50;55.80;;;;;;5012413;28;20511;-63
2021/06/15 02:32:27;;;;;;;1.58;1.48;;;24.50;55.70;;;;;;5013471;28;20037;-63
2021/06/15 02:34:53;;;;;;;2.50;1.75;;;24.50;55.80;;;;;;5013373;28;20034;-64
2021/06/15 02:37:45;;;;;;;2.17;1.30;;;24.50;55.80;;;;;;5013371;28;20029;-63
2021/06/15 02:40:11;;;;;;;1.50;1.40;;;24.50;55.80;;;;;;5013590;28;20010;-63
2021/06/15 02:42:41;;;;;;;1.50;1.40;;;24.40;55.80;;;;;;5013584;28;20030;-63
2021/06/15 02:45:09;;;;;;;1.55;1.38;;;24.50;56.00;;;;;;5013565;28;20439;-63
2021/06/15 02:47:36;;;;;;;2.67;1.52;;;24.40;55.90;;;;;;5013123;28;20036;-63
2021/06/15 02:50:04;;;;;;;2.05;1.60;;;24.40;55.90;;;;;;5013084;28;20034;-62
2021/06/15 02:52:44;;;;;;;1.80;1.30;;;24.40;55.90;;;;;;5013394;28;20104;-62
2021/06/15 02:55:16;;;;;;;1.95;1.30;;;24.40;55.80;;;;;;5013152;28;20057;-62
2021/06/15 02:57:42;;;;;;;3.33;1.48;;;24.40;55.90;;;;;;5013352;28;20022;-62
2021/06/15 03:00:10;;;;;;;2.72;1.42;;;24.50;56.00;;;;;;5013204;28;20044;-62
2021/06/15 03:02:35;;;;;;;2.60;1.65;;;24.40;55.90;;;;;;5013196;28;20051;-62
2021/06/15 03:05:04;;;;;;;2.10;1.60;;;24.40;56.00;;;;;;5012920;28;20089;-62
2021/06/15 03:07:33;;;;;;;2.70;1.55;;;24.40;56.00;;;;;;5013232;28;20022;-62
2021/06/15 03:10:07;;;;;;;1.65;1.30;;;24.40;56.00;;;;;;5012678;28;20042;-62
2021/06/15 03:12:47;;;;;;;2.30;1.35;;;24.40;55.90;;;;;;5011731;28;20032;-62
2021/06/15 03:15:16;;;;;;;1.67;1.33;;;24.40;55.90;;;;;;5013190;28;20029;-62
2021/06/15 03:17:51;;;;;;;1.45;1.20;;;24.40;56.10;;;;;;5012690;28;20025;-62
2021/06/15 03:20:21;;;;;;;1.33;1.20;;;24.40;56.00;;;;;;5012949;28;20092;-62
2021/06/15 03:23:34;;;;;;;2.55;1.60;;;24.40;56.00;;;;;;5012677;28;20028;-62
2021/06/15 03:26:08;;;;;;;1.50;1.30;;;24.40;56.00;;;;;;5005364;28;20061;-62
2021/06/15 03:28:37;;;;;;;1.80;1.02;;;24.40;56.10;;;;;;5016708;28;20026;-62
2021/06/15 03:31:04;;;;;;;1.50;1.10;;;24.50;56.10;;;;;;5017005;28;20385;-62
2021/06/15 03:33:33;;;;;;;2.83;1.20;;;24.40;56.00;;;;;;5016895;28;20073;-63
2021/06/15 03:36:01;;;;;;;1.58;1.48;;;24.30;56.00;;;;;;5016902;28;20030;-62
2021/06/15 03:38:33;;;;;;;1.25;1.15;;;24.30;56.00;;;;;;5016699;28;20022;-62
2021/06/15 03:41:00;;;;;;;3.45;1.65;;;24.30;56.00;;;;;;5016579;28;20022;-63
2021/06/15 03:43:29;;;;;;;1.63;1.20;;;24.30;55.50;;;;;;5016833;28;20087;-63
2021/06/15 03:46:07;;;;;;;1.88;1.40;;;24.30;56.00;;;;;;5016874;28;20084;-63
2021/06/15 03:48:36;;;;;;;2.72;1.35;;;24.30;56.00;;;;;;5016462;28;20044;-63
2021/06/15 03:51:02;;;;;;;1.13;1.02;;;24.30;56.00;;;;;;5016237;28;20088;-63
2021/06/15 03:53:32;;;;;;;2.55;1.30;;;24.40;56.10;;;;;;5016266;28;20053;-62
2021/06/15 03:56:00;;;;;;;1.03;0.80;;;24.30;56.00;;;;;;5016505;28;20022;-62
2021/06/15 03:58:27;;;;;;;1.48;1.15;;;24.30;56.00;;;;;;5016541;28;20022;-63
2021/06/15 04:00:55;;;;;;;1.83;1.30;;;24.30;56.10;;;;;;5016517;28;20137;-63
2021/06/15 04:03:23;;;;;;;0.80;0.80;;;24.30;56.00;;;;;;5016096;28;20519;-62
2021/06/15 04:05:51;;;;;;;1.92;1.02;;;24.30;56.00;;;;;;5015923;28;20058;-63
2021/06/15 04:08:19;;;;;;;1.58;0.90;;;24.30;56.00;;;;;;5016051;28;20018;-63
2021/06/15 04:10:49;;;;;;;1.33;1.10;;;24.40;56.00;;;;;;5015971;28;20030;-63
2021/06/15 04:13:16;;;;;;;1.00;0.90;;;24.30;56.00;;;;;;5016280;28;20014;-63
2021/06/15 04:15:42;;;;;;;1.40;1.02;;;24.30;56.00;;;;;;5016136;28;20030;-63
2021/06/15 04:18:08;;;;;;;1.13;1.00;;;24.30;56.00;;;;;;5016253;28;20098;-63
2021/06/15 04:20:37;;;;;;;2.03;0.90;;;24.30;55.90;;;;;;5016092;28;20026;-63
2021/06/15 04:23:07;;;;;;;1.80;1.10;;;23.70;55.50;;;;;;5015704;28;20076;-63
2021/06/15 04:25:37;;;;;;;1.33;1.05;;;24.30;55.90;;;;;;5016094;28;20049;-63
2021/06/15 04:28:04;;;;;;;2.28;1.08;;;24.20;55.90;;;;;;5015962;28;20018;-63
2021/06/15 04:30:30;;;;;;;2.30;0.93;;;24.30;55.90;;;;;;5015597;28;20041;-63
2021/06/15 04:32:59;;;;;;;1.40;0.90;;;24.40;55.90;;;;;;5015946;28;20060;-63
2021/06/15 04:35:28;;;;;;;1.73;0.80;;;24.20;55.80;;;;;;5015988;28;20029;-63
2021/06/15 04:37:57;;;;;;;2.28;0.82;;;24.20;55.80;;;;;;5015588;28;20045;-63
2021/06/15 04:40:29;;;;;;;1.27;0.82;;;24.30;55.80;;;;;;5015798;28;20022;-63
2021/06/15 04:42:54;;;;;;;2.13;0.93;;;24.20;55.80;;;;;;5015496;28;20032;-63
2021/06/15 04:45:25;;;;;;;1.48;0.95;;;24.20;55.70;;;;;;5015714;28;20022;-63
2021/06/15 04:48:05;;;;;;;1.23;0.80;;;24.30;55.80;;;;;;5015418;28;20022;-62
2021/06/15 04:50:32;;;;;;;1.48;0.95;;;24.20;55.70;;;;;;5015548;28;20041;-63
2021/06/15 04:53:01;;;;;;;1.17;0.73;;;24.20;55.70;;;;;;5015582;28;20026;-63
2021/06/15 04:55:29;;;;;;;1.58;1.02;;;24.20;55.70;;;;;;5015486;28;20504;-63
2021/06/15 04:57:56;;;;;;;2.28;0.90;;;24.20;55.70;;;;;;5015168;28;20014;-63
2021/06/15 05:00:24;;;;;;;1.85;0.80;;;24.20;55.70;;;;;;5015002;28;20072;-63
2021/06/15 05:02:51;;;;;;;1.05;0.50;;;24.20;55.70;;;;;;5015273;28;20017;-63
2021/06/15 05:05:18;;;;;;;0.82;0.75;;;23.90;55.50;;;;;;5014855;28;20053;-62
2021/06/15 05:07:44;;;;;;;1.00;0.60;;;24.20;55.70;;;;;;5015155;28;20096;-63
2021/06/15 05:10:12;;;;;;;1.15;0.82;;;24.20;55.70;;;;;;5014884;28;20490;-63
2021/06/15 05:12:44;;;;;;;0.90;0.80;;;24.20;55.70;;;;;;5014960;28;20103;-61
2021/06/15 05:15:12;;;;;;;3.00;1.00;;;24.20;55.60;;;;;;5015084;28;20101;-62
2021/06/15 05:17:44;;;;;;;2.40;0.80;;;24.20;55.80;;;;;;5014611;28;20033;-61
2021/06/15 05:20:11;;;;;;;1.88;0.90;;;24.20;55.70;;;;;;5014694;28;20018;-62
2021/06/15 05:22:46;;;;;;;1.63;0.68;;;24.20;55.60;;;;;;5014527;28;20089;-62
2021/06/15 05:25:15;;;;;;;2.50;0.95;;;24.20;55.60;;;;;;5014626;28;20022;-62
2021/06/15 05:27:41;;;;;;;1.25;0.70;;;24.30;55.80;;;;;;5014700;28;20112;-62
2021/06/15 05:30:07;;;;;;;3.47;1.10;;;24.20;56.00;;;;;;5014232;28;20042;-62
2021/06/15 05:32:33;;;;;;;1.88;1.05;;;24.20;56.20;;;;;;5014376;28;20365;-61
2021/06/15 05:35:00;;;;;;;1.35;0.98;;;24.20;56.20;;;;;;5014602;28;20108;-62
2021/06/15 05:37:26;;;;;;;2.35;1.10;;;24.20;56.10;;;;;;5014244;28;20045;-62
2021/06/15 05:39:52;;;;;;;2.85;1.20;;;24.10;56.20;;;;;;5014373;28;20034;-62
2021/06/15 05:42:18;;;;;;;4.55;1.30;;;24.20;56.20;;;;;;5014165;28;20045;-62
2021/06/15 05:44:44;;;;;;;1.10;0.90;;;24.20;56.20;;;;;;5012858;28;20022;-63
2021/06/15 05:47:10;;;;;;;1.65;0.98;;;24.20;56.20;;;;;;5014214;28;20021;-62
2021/06/15 05:49:36;;;;;;;4.10;1.20;;;24.10;55.90;;;;;;5013497;28;20026;-63
2021/06/15 05:52:07;;;;;;;3.22;1.10;;;24.20;56.10;;;;;;5014185;28;20033;-62
2021/06/15 05:54:33;;;;;;;2.03;1.00;;;24.20;56.00;;;;;;5014212;28;20060;-61
2021/06/15 05:56:59;;;;;;;1.02;0.93;;;24.20;56.20;;;;;;5012789;28;20030;-61
2021/06/15 05:59:26;;;;;;;3.15;1.10;;;24.20;56.10;;;;;;5012378;28;20379;-61
2021/06/15 06:01:51;;;;;;;3.05;0.88;;;24.10;56.10;;;;;;5014225;28;20407;-61
2021/06/15 06:04:26;;;;;;;3.88;0.90;;;24.20;56.20;;;;;;5013778;28;20125;-61
2021/06/15 06:09:40;;;;;;;0.93;0.68;;;24.20;56.30;;;;;;5013844;28;20028;-61
2021/06/15 06:12:07;;;;;;;1.60;0.68;;;24.10;56.30;;;;;;5013839;28;20068;-61
2021/06/15 06:14:33;;;;;;;2.28;0.82;;;;;;;;;;5014055;28;20041;-62
2021/06/15 06:17:00;;;;;;;1.75;0.85;;;24.10;55.30;;;;;;5013807;28;20026;-61
2021/06/15 06:19:26;;;;;;;2.05;0.63;;;24.10;55.80;;;;;;5013668;28;20057;-61
2021/06/15 06:21:53;;;;;;;1.98;1.02;;;24.10;55.80;;;;;;5013929;28;20060;-61
2021/06/15 06:24:18;;;;;;;1.83;0.75;;;24.10;55.80;;;;;;5013800;28;20072;-61
2021/06/15 06:26:48;;;;;;;1.65;0.80;;;24.10;56.20;;;;;;5013913;28;20018;-61
2021/06/15 06:29:14;;;;;;;2.30;0.90;;;24.10;55.60;;;;;;5013410;28;20412;-61
2021/06/15 06:31:40;;;;;;;0.93;0.50;;;24.10;55.70;;;;;;5013584;28;20029;-61
2021/06/15 06:34:05;;;;;;;6.13;0.95;;;24.10;55.40;;;;;;5011983;28;20069;-61
2021/06/15 06:36:31;;;;;;;4.93;0.70;;;24.10;55.20;;;;;;5013366;28;20106;-61
2021/06/15 06:38:57;;;;;;;3.65;0.85;;;24.10;55.50;;;;;;5012202;28;20065;-61
2021/06/15 06:41:23;;;;;;;1.45;0.80;;;24.10;55.60;;;;;;5013354;28;20049;-61
2021/06/15 06:43:49;;;;;;;3.20;1.08;;;24.10;55.70;;;;;;5013553;28;20435;-61
2021/06/15 06:46:15;;;;;;;1.35;0.60;;;24.10;55.80;;;;;;5013603;28;20029;-61
2021/06/15 06:48:40;;;;;;;2.25;0.77;;;24.20;55.70;;;;;;5013547;28;20022;-61
2021/06/15 06:51:06;;;;;;;4.40;0.70;;;24.10;55.50;;;;;;5013224;28;20037;-61
2021/06/15 06:53:32;;;;;;;3.50;0.57;;;24.10;56.10;;;;;;5013170;28;20026;-61
2021/06/15 06:55:58;;;;;;;2.88;0.77;;;24.10;56.40;;;;;;5013504;28;20033;-61
2021/06/15 06:58:24;;;;;;;0.80;0.68;;;24.10;56.10;;;;;;5012362;28;20404;-61
2021/06/15 07:00:50;;;;;;;1.98;0.57;;;24.10;56.10;;;;;;5010848;28;20033;-61
2021/06/15 07:03:16;;;;;;;1.75;0.43;;;24.10;56.10;;;;;;5011741;28;20018;-61
2021/06/15 07:05:42;;;;;;;2.22;0.70;;;24.20;56.40;;;;;;5013128;28;20057;-61
2021/06/15 07:08:07;;;;;;;5.25;0.60;;;24.10;56.00;;;;;;5013091;28;20028;-61
2021/06/15 07:10:33;;;;;;;1.45;0.40;;;24.10;55.30;;;;;;5013300;28;20030;-61
2021/06/15 07:12:59;;;;;;;3.75;0.77;;;24.10;54.60;;;;;;5013347;28;20026;-61
2021/06/15 07:15:25;;;;;;;3.60;0.52;;;24.10;54.00;;;;;;5012050;28;20022;-61
2021/06/15 07:17:50;;;;;;;1.73;0.60;;;24.10;53.50;;;;;;5013264;28;20026;-61
2021/06/15 07:20:16;;;;;;;3.60;0.70;;;24.10;52.20;;;;;;5012814;28;20496;-61
2021/06/15 07:22:42;;;;;;;3.22;0.82;;;24.10;51.90;;;;;;5012990;28;20041;-60
2021/06/15 07:25:08;;;;;;;2.67;0.70;;;24.10;51.20;;;;;;5013147;28;20033;-60
2021/06/15 07:27:34;;;;;;;2.83;0.88;;;24.10;51.20;;;;;;5011380;28;20022;-60
2021/06/15 07:29:59;;;;;;;4.65;0.93;;;24.00;50.50;;;;;;5013042;28;20030;-60
2021/06/15 07:32:25;;;;;;;1.80;0.40;;;24.20;50.30;;;;;;5013153;28;20080;-60
2021/06/15 07:34:51;;;;;;;3.00;0.50;;;24.10;50.30;;;;;;5013061;28;20030;-60
2021/06/15 07:37:17;;;;;;;5.10;0.70;;;24.00;49.90;;;;;;5012795;28;20022;-60
2021/06/15 07:39:42;;;;;;;2.25;0.70;;;24.10;50.00;;;;;;5012599;28;20041;-60
2021/06/15 07:42:08;;;;;;;2.00;0.60;;;24.10;49.80;;;;;;5013070;28;20053;-59
2021/06/15 07:44:34;;;;;;;1.25;0.60;;;24.00;49.80;;;;;;5012965;28;20033;-60
2021/06/15 07:47:00;;;;;;;1.88;0.60;;;24.10;49.90;;;;;;5011522;28;20024;-60
2021/06/15 07:49:26;;;;;;;1.95;0.60;;;24.10;50.20;;;;;;5012659;28;20029;-60
2021/06/15 07:51:52;;;;;;;2.35;0.80;;;24.10;50.30;;;;;;5012899;28;20037;-60
2021/06/15 07:54:18;;;;;;;2.78;0.70;;;24.10;50.60;;;;;;5012674;28;20088;-60
2021/06/15 07:56:43;;;;;;;2.00;0.50;;;24.20;50.00;;;;;;5012860;28;20061;-59
2021/06/15 07:59:09;;;;;;;2.80;0.43;;;24.10;49.80;;;;;;5012863;28;20384;-59
2021/06/15 08:01:34;;;;;;;1.85;0.65;;;24.10;50.00;;;;;;5011429;28;20022;-60
2021/06/15 08:04:00;;;;;;;4.20;0.82;;;24.10;49.80;;;;;;5012421;28;20042;-59
2021/06/15 08:06:26;;;;;;;2.00;0.60;;;24.10;49.80;;;;;;5012556;28;20022;-59
2021/06/15 08:08:51;;;;;;;2.30;0.70;;;24.10;49.80;;;;;;5012732;28;20083;-59
2021/06/15 08:11:17;;;;;;;2.22;0.82;;;24.10;49.80;;;;;;5013137;28;20034;-59
2021/06/15 08:13:43;;;;;;;3.67;0.50;;;24.20;49.90;;;;;;5016142;28;20026;-59
2021/06/15 08:16:09;;;;;;;4.80;0.50;;;24.10;49.90;;;;;;5016138;28;20022;-59
2021/06/15 08:18:34;;;;;;;3.30;0.68;;;24.20;50.00;;;;;;5016198;28;20026;-59
2021/06/15 08:21:00;;;;;;;2.67;0.40;;;24.20;50.00;;;;;;5016137;28;20029;-59
2021/06/15 08:23:28;;;;;;;2.97;0.63;;;24.20;50.00;;;;;;5015795;28;20032;-59
2021/06/15 08:25:54;;;;;;;1.98;0.40;;;24.20;50.10;;;;;;5015711;28;20495;-59
2021/06/15 08:28:21;;;;;;;1.38;0.55;;;24.20;50.20;;;;;;5015961;28;20022;-59
2021/06/15 08:30:47;;;;;;;3.45;0.60;;;24.30;50.30;;;;;;5015863;28;20034;-59
2021/06/15 08:33:13;;;;;;;2.03;0.55;;;24.40;50.40;;;;;;5015843;28;20018;-59
2021/06/15 08:35:39;;;;;;;0.70;0.38;;;24.30;50.40;;;;;;5015878;28;20076;-59
2021/06/15 08:38:05;;;;;;;3.72;0.90;;;24.30;50.40;;;;;;5014403;28;20024;-59
2021/06/15 08:40:31;;;;;;;0.57;0.40;;;24.30;50.50;;;;;;5014203;28;20131;-59
2021/06/15 08:42:57;;;;;;;1.77;0.40;;;24.30;50.50;;;;;;5015817;28;20072;-59
2021/06/15 08:45:24;;;;;;;1.90;0.32;;;24.30;50.60;;;;;;5015372;28;20455;-61
2021/06/15 08:47:51;;;;;;;1.67;0.50;;;24.30;50.70;;;;;;5015617;28;20029;-60
2021/06/15 08:50:24;;;;;;;1.58;0.60;;;24.40;50.70;;;;;;5015230;28;20034;-60
2021/06/15 08:52:51;;;;;;;1.73;0.40;;;24.40;50.80;;;;;;5015540;28;20064;-59
2021/06/15 08:55:19;;;;;;;1.45;0.40;;;24.40;50.90;;;;;;5015552;28;20037;-60
2021/06/15 08:57:54;;;;;;;1.63;0.45;;;24.40;51.00;;;;;;5015095;28;20025;-59
2021/06/15 09:00:20;;;;;;;3.10;0.73;;;24.50;51.00;;;;;;5015252;28;20080;-59
2021/06/15 09:02:47;;;;;;;2.78;0.50;;;24.50;51.00;;;;;;5015203;28;20504;-60
2021/06/15 09:05:18;;;;;;;1.63;0.65;;;24.60;51.10;;;;;;5014792;28;20057;-59
2021/06/15 09:08:08;;;;;;;2.50;0.50;;;24.60;51.20;;;;;;5015038;28;20112;-59
2021/06/15 09:10:41;;;;;;;1.65;0.40;;;24.60;51.20;;;;;;5014997;28;20069;-59
2021/06/15 09:13:40;;;;;;;3.42;0.32;;;24.60;51.20;;;;;;5015226;28;20037;-58
2021/06/15 09:16:32;;;;;;;0.63;0.32;;;24.60;51.10;;;;;;5015134;28;20096;-60
2021/06/15 09:18:59;;;;;;;0.80;0.52;;;24.70;51.00;;;;;;5015190;28;20018;-60
2021/06/15 09:21:31;;;;;;;0.93;0.30;;;24.80;51.20;;;;;;5014891;28;20101;-61
2021/06/15 09:24:06;;;;;;;1.77;0.73;;;24.80;51.20;;;;;;5013645;28;20034;-60
2021/06/15 09:26:54;;;;;;;1.67;0.50;;;24.80;51.20;;;;;;5014924;28;20133;-60
2021/06/15 09:29:42;;;;;;;0.75;0.43;;;24.90;51.20;;;;;;5008064;28;20464;-60
2021/06/15 09:32:16;;;;;;;1.48;0.30;;;24.90;51.20;;;;;;5014837;28;20064;-61
2021/06/15 09:34:55;;;;;;;1.48;0.30;;;25.00;51.30;;;;;;5014369;28;20022;-60
2021/06/15 09:37:45;;;;;;;1.25;0.32;;;25.00;51.10;;;;;;5014180;28;20523;-60
2021/06/15 09:40:32;;;;;;;0.70;0.30;;;25.00;51.00;;;;;;5014750;28;20109;-60
2021/06/15 09:43:03;;;;;;;2.95;0.73;;;25.10;51.20;;;;;;5014470;28;20085;-60
2021/06/15 09:45:45;;;;;;;1.75;0.35;;;25.10;51.20;;;;;;5014192;28;20396;-60
2021/06/15 09:48:34;;;;;;;1.55;0.40;;;25.10;51.10;;;;;;5012987;28;20033;-59
2021/06/15 09:51:11;;;;;;;2.85;0.40;;;25.10;51.10;;;;;;5014508;28;20125;-60
2021/06/15 09:53:39;;;;;;;1.55;0.50;;;25.20;50.90;;;;;;5014310;28;20014;-59
2021/06/15 09:56:08;;;;;;;4.75;0.50;;;25.30;51.30;;;;;;5013926;28;20032;-60
2021/06/15 09:58:54;;;;;;;3.30;0.43;;;25.30;51.80;;;;;;5013933;28;20491;-59
2021/06/15 10:01:42;;;;;;;5.10;0.40;;;25.30;52.00;;;;;;5014146;28;20053;-61
2021/06/15 10:04:12;;;;;;;7.03;0.57;;;25.30;52.20;;;;;;5013745;28;20038;-61
2021/06/15 10:06:41;;;;;;;2.15;0.50;;;25.40;52.30;;;;;;5014204;28;20018;-61
2021/06/15 10:09:07;;;;;;;4.65;0.50;;;25.30;53.00;;;;;;5014135;28;20048;-60
2021/06/15 10:11:33;;;;;;;2.15;0.80;;;25.40;52.30;;;;;;5013266;28;20485;-60
2021/06/15 10:14:01;;;;;;;3.45;0.73;;;25.50;52.40;;;;;;5013800;28;20026;-61
2021/06/15 10:16:27;;;;;;;1.63;0.40;;;25.40;52.40;;;;;;5014075;28;20469;-60
2021/06/15 10:18:53;;;;;;;1.33;0.40;;;25.40;52.40;;;;;;5013837;28;20022;-61
2021/06/15 10:21:19;;;;;;;1.70;0.32;;;25.40;76.70;;;;;;5013767;28;20393;-61
2021/06/15 10:23:45;;;;;;;0.75;0.30;;;25.50;52.30;;;;;;5013481;28;20026;-61
2021/06/15 10:26:11;;;;;;;3.58;0.60;;;25.60;52.40;;;;;;5013336;28;20137;-60
2021/06/15 10:28:38;;;;;;;3.80;0.40;;;25.50;52.30;;;;;;5013574;28;20022;-60
2021/06/15 10:31:04;;;;;;;0.68;0.30;;;25.50;52.40;;;;;;5012010;28;20502;-60
2021/06/15 10:33:45;;;;;;;0.88;0.40;;;25.60;52.50;;;;;;5012203;28;20173;-61
2021/06/15 10:36:11;;;;;;;1.30;0.63;;;25.70;52.50;;;;;;4995546;28;20053;-61
2021/06/15 10:38:41;;;;;;;0.40;0.20;;;25.60;52.40;;;;;;5013336;28;20484;-61
2021/06/15 10:41:19;;;;;;;2.08;0.47;;;25.70;76.80;;;;;;5013617;28;20025;-60
2021/06/15 10:43:45;;;;;;;3.33;0.43;;;25.50;76.30;;;;;;5013468;28;20372;-60
2021/06/15 10:46:15;;;;;;;2.75;0.50;;;25.70;52.50;;;;;;5013609;28;20021;-61
2021/06/15 10:48:45;;;;;;;1.60;0.20;;;25.70;52.40;;;;;;5011925;28;20033;-61
2021/06/15 10:51:44;;;;;;;1.27;0.43;;;25.60;51.20;;;;;;5013402;28;20034;-61
2021/06/15 10:54:40;;;;;;;2.25;0.40;;;25.60;51.60;;;;;;5013128;28;20033;-61
2021/06/15 10:57:29;;;;;;;3.97;0.65;;;25.70;51.30;;;;;;5013394;28;20113;-61
2021/06/15 10:59:57;;;;;;;2.77;0.30;;;25.70;51.30;;;;;;5012893;28;20025;-61
2021/06/15 11:02:27;;;;;;;2.72;0.60;;;25.70;51.20;;;;;;5013291;28;20372;-61
2021/06/15 11:04:53;;;;;;;1.13;0.30;;;25.70;51.20;;;;;;5012904;28;20050;-61
2021/06/15 11:07:27;;;;;;;1.55;0.47;;;25.70;50.90;;;;;;5012863;28;20457;-61
2021/06/15 11:09:52;;;;;;;3.65;0.50;;;25.70;50.80;;;;;;5012760;28;20175;-61
2021/06/15 11:12:21;;;;;;;2.95;0.60;;;25.70;50.70;;;;;;5012845;28;20116;-61
2021/06/15 11:15:06;;;;;;;1.23;0.30;;;25.80;50.60;;;;;;5013200;28;20026;-61
2021/06/15 11:17:51;;;;;;;1.67;0.55;;;25.70;50.60;;;;;;5012879;28;20067;-61
2021/06/15 11:20:31;;;;;;;3.53;0.45;;;25.70;50.60;;;;;;5013195;28;20476;-61
2021/06/15 11:23:18;;;;;;;3.85;0.63;;;25.70;50.40;;;;;;5012652;28;20500;-61
2021/06/15 11:26:13;;;;;;;1.83;0.68;;;25.70;50.20;;;;;;5013153;28;20033;-61
2021/06/15 11:28:42;;;;;;;2.35;0.43;;;25.70;50.10;;;;;;5013065;28;20026;-61
2021/06/15 11:31:17;;;;;;;1.60;0.47;;;25.80;50.30;;;;;;5012954;28;20117;-61
2021/06/15 11:34:01;;;;;;;2.78;0.50;;;25.80;50.30;;;;;;5012718;28;20026;-61
2021/06/15 11:36:40;;;;;;;1.58;0.50;;;25.80;50.20;;;;;;5012932;28;20040;-61
2021/06/15 11:39:24;;;;;;;2.53;0.57;;;25.80;50.10;;;;;;5013001;28;20109;-61
2021/06/15 11:42:26;;;;;;;1.88;0.70;;;26.20;50.50;;;;;;5012706;28;20046;-61
2021/06/15 11:45:11;;;;;;;1.90;0.70;;;25.80;50.20;;;;;;5012686;28;20479;-61
2021/06/15 11:47:55;;;;;;;2.42;0.45;;;25.80;50.10;;;;;;5015822;28;20144;-61
2021/06/15 11:50:29;;;;;;;2.42;0.75;;;25.80;49.70;;;;;;5016312;28;20026;-61
2021/06/15 11:53:03;;;;;;;4.22;1.20;;;25.80;50.20;;;;;;5016698;28;20022;-61
2021/06/15 11:55:37;;;;;;;4.38;0.65;;;25.80;50.20;;;;;;5016843;28;20022;-61
2021/06/15 11:58:04;;;;;;;2.20;0.90;;;25.90;50.90;;;;;;5016044;28;20101;-61
2021/06/15 12:00:31;;;;;;;2.50;0.70;;;25.90;50.20;;;;;;5016540;28;20109;-61
2021/06/15 12:03:02;;;;;;;0.95;0.50;;;26.00;50.40;;;;;;5016484;28;20100;-61
2021/06/15 12:05:28;;;;;;;6.28;0.52;;;25.90;50.40;;;;;;5016089;28;20469;-61
2021/06/15 12:07:54;;;;;;;2.58;0.82;;;25.80;50.30;;;;;;5016300;28;20090;-61
2021/06/15 12:10:24;;;;;;;7.32;1.05;;;26.00;50.50;;;;;;5015995;28;20117;-61
2021/06/15 12:13:08;;;;;;;1.98;0.68;;;26.20;50.60;;;;;;5016050;28;20037;-61
2021/06/15 12:15:43;;;;;;;4.20;0.60;;;25.90;50.40;;;;;;5015929;28;20041;-60
2021/06/15 12:18:11;;;;;;;1.92;0.40;;;25.90;50.40;;;;;;5016206;28;20112;-61
2021/06/15 12:20:40;;;;;;;1.85;0.50;;;26.00;50.50;;;;;;5016222;28;20033;-61
2021/06/15 12:23:24;;;;;;;3.92;0.70;;;26.00;50.60;;;;;;5014570;28;20545;-61
2021/06/15 12:25:51;;;;;;;1.90;0.50;;;25.90;50.50;;;;;;5016022;28;20040;-60
2021/06/15 12:28:19;;;;;;;2.13;0.50;;;25.90;50.50;;;;;;5014489;28;20076;-60
2021/06/15 12:30:45;;;;;;;1.80;0.60;;;26.00;50.60;;;;;;5015825;28;20034;-60
2021/06/15 12:33:13;;;;;;;3.08;0.60;;;26.60;51.00;;;;;;5015963;28;20022;-60
2021/06/15 12:35:39;;;;;;;2.33;0.60;;;26.00;50.50;;;;;;5015524;28;20034;-61
2021/06/15 12:38:14;;;;;;;2.60;0.65;;;25.90;50.40;;;;;;5015841;28;20025;-60
2021/06/15 12:40:42;;;;;;;1.77;0.40;;;26.00;50.50;;;;;;5014560;28;20034;-61
2021/06/15 12:43:08;;;;;;;2.97;0.60;;;25.90;50.40;;;;;;5015471;28;20021;-61
2021/06/15 12:45:36;;;;;;;1.48;0.60;;;26.00;50.40;;;;;;5015676;28;20041;-61
2021/06/15 12:48:21;;;;;;;4.70;0.70;;;26.00;50.40;;;;;;5015575;28;20097;-61
2021/06/15 12:50:47;;;;;;;2.28;0.60;;;26.10;50.40;;;;;;5015452;28;20034;-61
2021/06/15 12:53:12;;;;;;;1.98;0.90;;;26.30;50.60;;;;;;5015274;28;20101;-61
2021/06/15 12:55:42;;;;;;;3.83;0.63;;;26.00;50.40;;;;;;5015524;28;20058;-61
2021/06/15 12:58:08;;;;;;;0.95;0.43;;;25.90;50.40;;;;;;5015235;28;20056;-61
2021/06/15 13:00:43;;;;;;;2.90;0.70;;;26.10;50.50;;;;;;5015079;28;20112;-61
2021/06/15 13:03:13;;;;;;;3.65;0.55;;;25.90;50.40;;;;;;4997841;28;20026;-60
2021/06/15 13:05:39;;;;;;;5.72;1.05;;;25.90;50.40;;;;;;5015478;28;20042;-61
2021/06/15 13:08:05;;;;;;;1.48;0.38;;;26.00;50.50;;;;;;5015221;28;20377;-60